Terminal Aerodrome Forecast
Issued by NWS Upton, NY

Home | Current Version | Previous Version | Text Only | Print | Product List | Glossary On
Versions: 1 2 3 4 5 6 7 8 9 10 11 12 13 14 15 16 17 18 19 20 21 22 23 24 25 26 27 28
000
FTUS41 KOKX 300500
TAFEWR
TAF
KEWR 300530Z 3006/3112 33005KT P6SM SCT070 SCT200
      TEMPO 3006/3010 BKN080
     FM301600 23008KT P6SM SCT060
     FM310100 24005KT P6SM SCT060 SCT120=

USA.gov is the U.S. government's official web portal to all federal, state and local government web resources and services.